Newberry, Florida
Current Conditions -  °F | °C
As of 8:53 AM on Wednesday 22 Oct 2014 (Local Time) from KGNV Reporting Station
Clear Clear  
Wind Chill: 62°   Ceiling: Unl
Heat Index: 62°   Visibility: 10mi
Dew Point: 55°   Wind: 5mph
Humidity: 78%   Direction: NA
Pressure: 30.02"   Gusts: NA
Location:  29.65°N, 82.61°W
Report Text: KGNV 221253Z VRB04KT 10SM CLR 17/13 A3002 RMK AO2 SLP164 T01670128
Loading
Personal Weather Stations






























Interactive Weather Map
Tropical Storm Tracking
New forecast layout! Learn more

10-Day Weather Forecast

Advertisements
Track Severe Weather on mobile